Airfield :
LOGIN :

Register | Disclaimer

   EN    FR    IT 

 










Legend :    VFR   Marginal VFR   IFR   Intensive IFR   Very Intensive IFR
Visi :
Ceiling :
>= 8 km
>= 3000ft
5 to 8 km
1000 to 3000 ft
1500m to 5 km
500 to 1000 ft
800 to 1500m
200 to 500 ft
< 800m
< 200 ft
Symbols :   Thunderstorms  Fog  Heavy snow  Heavy precipitations  Wind > 20 kt
SIGMETs :     Misc.  Thunderstorms  Icing  Turbulence  Mountain Waves  Volcanic Ashes






- Airport Elevation : 172 ft
- IATA code : LPI


ESSL - Saab

CURRENT METAR :
  • 051050Z AUTO 27007KT 230V320 9999 FEW032/// BKN070/// BKN098/// 12/05 Q1029

EXPIRED METARs :
  • 051020Z AUTO 24006KT 190V280 9999 FEW029/// OVC064/// 11/05 Q1029
  • 050950Z AUTO 25006KT 210V300 9999 BKN026/// BKN055/// 11/05 Q1030
  • 050920Z AUTO 24005KT 200V300 9999 SCT024/// BKN092/// 10/04 Q1029
  • 050850Z AUTO 28005KT 230V300 9999 FEW022/// OVC090/// 09/04 Q1029
  • 050820Z AUTO 26005KT 220V310 9999 BKN020/// OVC088/// 09/04 Q1029
  • 050750Z AUTO 25004KT 190V320 9999 SCT019/// BKN064/// BKN084/// 08/04 Q1029

Expired Forecast.



MET'MAP, your aeronautical weather chart ! - Copyright ORBIFLY December 2007 - Disclaimer

ORBIFLY MET'MAP TEAM :

Programming & Development : Alexandra Zaïnal
Concept & original design : Baudouin d'Aumeries
Assistance for programming : Marc-Olivier Méhu
Technical & hardware support : Manuel Goepfert

Contact : metmap@orbifly.com




SOURCES & CREDITS :

   NOAA